METAR Data
IDs: Format: Raw Decoded Include TAF

Data at: 0902 UTC 13 Aug 2022

ETWM 130820Z AUTO 08005KT //// // ////// 26/10 Q1018 ///